Time;durP1;ratioP1;P1;durP2;ratioP2;P2;SDS_P1;SDS_P2;PMS_P1;PMS_P2;Temp;Humidity;BMP_temperature;BMP_pressure;BME280_temperature;BME280_humidity;BME280_pressure;Samples;Min_cycle;Max_cycle;Signal;HPM_P1;HPM_P2
2021/12/08 00:02:16;;;;;;;13.70;6.20;;;;;;;;;;5025598;28;20029;-83
2021/12/08 00:04:42;;;;;;;14.90;7.10;;;;;;;;;;5028808;28;20045;-83
2021/12/08 00:07:08;;;;;;;13.70;6.53;;;;;;;;;;5025591;28;20037;-84
2021/12/08 00:09:48;;;;;;;15.10;6.25;;;;;;;;;;5043518;28;20785;-83
2021/12/08 00:15:00;;;;;;;15.40;6.57;;;;;;;;;;5026068;28;20520;-84
2021/12/08 00:17:26;;;;;;;16.42;7.93;;;;;;;;;;5027773;28;20481;-83
2021/12/08 00:19:53;;;;;;;12.40;7.20;;;;;;;;;;5025673;28;20041;-84
2021/12/08 00:22:19;;;;;;;17.73;7.10;;;;;;;;;;5027298;28;20045;-83
2021/12/08 00:24:45;;;;;;;17.25;7.90;;;;;;;;;;5040654;28;20481;-83
2021/12/08 00:27:11;;;;;;;18.17;7.28;;;;;;;;;;5026358;28;20466;-83
2021/12/08 00:29:38;;;;;;;17.55;8.18;;;;;;;;;;5040409;28;20132;-83
2021/12/08 00:32:06;;;;;;;19.20;8.98;;;;;;;;;;4993525;28;20091;-83
2021/12/08 00:34:32;;;;;;;15.98;7.82;;;;;;;;;;5028151;28;20057;-83
2021/12/08 00:37:01;;;;;;;18.70;7.15;;;;;;;;;;5025111;28;20123;-83
2021/12/08 00:39:27;;;;;;;15.77;7.95;;;;;;;;;;5027691;28;20045;-84
2021/12/08 00:41:53;;;;;;;17.05;7.88;;;;;;;;;;5025136;28;20132;-83
2021/12/08 00:44:19;;;;;;;16.80;7.90;;;;;;;;;;5027719;28;20044;-84
2021/12/08 00:46:45;;;;;;;14.93;7.63;;;;;;;;;;5027093;28;20100;-84
2021/12/08 00:49:14;;;;;;;15.88;7.40;;;;;;;;;;5024581;28;20513;-84
2021/12/08 00:51:40;;;;;;;24.08;7.50;;;;;;;;;;5020092;28;20081;-84
2021/12/08 00:54:06;;;;;;;16.75;8.52;;;;;;;;;;5041832;28;20497;-84
2021/12/08 00:56:32;;;;;;;14.35;7.40;;;;;;;;;;5005343;28;20040;-83
2021/12/08 00:58:58;;;;;;;17.45;7.90;;;;;;;;;;5040160;28;20056;-86
2021/12/08 01:01:25;;;;;;;15.50;7.65;;;;;;;;;;5021052;28;20110;-84
2021/12/08 01:03:51;;;;;;;13.02;7.43;;;;;;;;;;5026723;28;20044;-84
2021/12/08 01:06:17;;;;;;;17.10;7.20;;;;;;;;;;5041434;28;20053;-84
2021/12/08 01:08:44;;;;;;;18.85;7.60;;;;;;;;;;5021542;28;20053;-84
2021/12/08 01:11:12;;;;;;;13.25;7.32;;;;;;;;;;5005302;28;20034;-83
2021/12/08 01:13:39;;;;;;;18.05;7.30;;;;;;;;;;5007281;28;20041;-83
2021/12/08 01:16:05;;;;;;;17.48;7.13;;;;;;;;;;5040921;28;20052;-84
2021/12/08 01:18:32;;;;;;;11.40;6.63;;;;;;;;;;5025276;28;20049;-83
2021/12/08 01:20:59;;;;;;;16.00;7.32;;;;;;;;;;5024363;28;20046;-83
2021/12/08 01:23:26;;;;;;;16.52;6.97;;;;;;;;;;5023735;28;20131;-83
2021/12/08 01:25:52;;;;;;;17.45;6.78;;;;;;;;;;5025496;28;20107;-84
2021/12/08 01:28:20;;;;;;;15.25;7.10;;;;;;;;;;5023688;28;20041;-83
2021/12/08 01:30:47;;;;;;;15.13;7.63;;;;;;;;;;5024494;28;20100;-83
2021/12/08 01:33:13;;;;;;;19.40;7.57;;;;;;;;;;5022898;28;20038;-82
2021/12/08 01:35:39;;;;;;;12.07;6.30;;;;;;;;;;5024367;28;20054;-83
2021/12/08 01:38:05;;;;;;;13.52;7.07;;;;;;;;;;5022098;28;20056;-83
2021/12/08 01:40:31;;;;;;;17.33;6.80;;;;;;;;;;5025923;28;20051;-83
2021/12/08 01:43:00;;;;;;;14.95;7.20;;;;;;;;;;5023397;28;20045;-82
2021/12/08 01:48:14;;;;;;;11.80;5.90;;;;;;;;;;5024407;28;20110;-83
2021/12/08 01:50:41;;;;;;;11.98;6.65;;;;;;;;;;5024195;28;20077;-83
2021/12/08 01:53:08;;;;;;;13.57;6.28;;;;;;;;;;5021400;28;20514;-83
2021/12/08 01:55:34;;;;;;;19.83;6.82;;;;;;;;;;5040162;28;20053;-83
2021/12/08 01:58:00;;;;;;;12.45;6.70;;;;;;;;;;5025127;28;20140;-83
2021/12/08 02:00:28;;;;;;;13.45;6.53;;;;;;;;;;5038550;28;20464;-83
2021/12/08 02:02:54;;;;;;;14.30;7.35;;;;;;;;;;5040294;28;20045;-83
2021/12/08 02:05:20;;;;;;;13.25;6.75;;;;;;;;;;5025307;28;20045;-84
2021/12/08 02:07:47;;;;;;;15.40;6.88;;;;;;;;;;5023908;28;20723;-83
2021/12/08 02:10:13;;;;;;;16.80;7.15;;;;;;;;;;5021373;28;20052;-83
2021/12/08 02:12:41;;;;;;;12.80;7.55;;;;;;;;;;5006190;28;20047;-83
2021/12/08 02:15:10;;;;;;;14.43;7.25;;;;;;;;;;5007110;28;20048;-83
2021/12/08 02:17:36;;;;;;;12.52;7.30;;;;;;;;;;5023627;28;20116;-83
2021/12/08 02:20:04;;;;;;;15.60;6.65;;;;;;;;;;5023532;28;20107;-83
2021/12/08 02:22:30;;;;;;;11.10;6.38;;;;;;;;;;5040835;28;20037;-83
2021/12/08 02:24:57;;;;;;;12.85;6.65;;;;;;;;;;5021451;28;20068;-83
2021/12/08 02:27:23;;;;;;;10.82;6.28;;;;;;;;;;5024068;28;20107;-84
2021/12/08 02:29:56;;;;;;;16.17;6.53;;;;;;;;;;5022682;28;20038;-83
2021/12/08 02:48:34;;;;;;;13.15;7.60;;;;;;;;;;5026946;28;20091;-84
2021/12/08 02:51:00;;;;;;;15.40;7.60;;;;;;;;;;5025813;28;20045;-83
2021/12/08 02:53:26;;;;;;;15.50;7.97;;;;;;;;;;5011450;28;20029;-83
2021/12/08 02:55:53;;;;;;;17.60;8.57;;;;;;;;;;5026371;28;20401;-83
2021/12/08 02:58:20;;;;;;;16.20;7.95;;;;;;;;;;5008697;28;20045;-83
2021/12/08 03:00:53;;;;;;;14.95;7.18;;;;;;;;;;5024351;28;20534;-83
2021/12/08 03:03:19;;;;;;;13.30;8.15;;;;;;;;;;5020081;28;20030;-83
2021/12/08 03:05:45;;;;;;;13.60;8.13;;;;;;;;;;5028528;28;20042;-84
2021/12/08 03:08:12;;;;;;;12.32;7.55;;;;;;;;;;5028090;28;20037;-83
2021/12/08 03:10:41;;;;;;;14.48;7.45;;;;;;;;;;5023102;28;20050;-83
2021/12/08 03:13:08;;;;;;;15.90;7.63;;;;;;;;;;5025827;28;20148;-83
2021/12/08 03:15:34;;;;;;;13.80;7.13;;;;;;;;;;5026548;28;20042;-83
2021/12/08 03:18:00;;;;;;;11.23;7.65;;;;;;;;;;5026519;28;20037;-83
2021/12/08 03:20:44;;;;;;;12.73;7.80;;;;;;;;;;5028261;28;20077;-83
2021/12/08 03:23:22;;;;;;;10.02;6.50;;;;;;;;;;5028401;28;20053;-84
2021/12/08 03:25:55;;;;;;;10.18;6.72;;;;;;;;;;5025750;28;20049;-84
2021/12/08 03:28:26;;;;;;;11.73;7.27;;;;;;;;;;5023674;28;20042;-83
2021/12/08 03:33:22;;;;;;;10.30;6.80;;;;;;;;;;5025359;28;20053;-84
2021/12/08 03:35:49;;;;;;;14.38;7.78;;;;;;;;;;5024350;28;20096;-84
2021/12/08 03:38:19;;;;;;;11.98;8.02;;;;;;;;;;5039931;28;20041;-84
2021/12/08 03:40:47;;;;;;;15.55;8.00;;;;;;;;;;5027965;28;20053;-84
2021/12/08 03:43:13;;;;;;;13.63;8.10;;;;;;;;;;5024737;28;20116;-84
2021/12/08 03:45:44;;;;;;;18.67;8.35;;;;;;;;;;5026320;28;20068;-84
2021/12/08 03:48:13;;;;;;;16.27;7.90;;;;;;;;;;5024000;28;20081;-83
2021/12/08 03:50:41;;;;;;;10.45;7.57;;;;;;;;;;5040020;28;20053;-83
2021/12/08 03:53:08;;;;;;;14.35;9.25;;;;;;;;;;5025913;28;20042;-82
2021/12/08 03:55:34;;;;;;;17.67;9.07;;;;;;;;;;5020827;28;20048;-83
2021/12/08 03:58:00;;;;;;;16.05;9.85;;;;;;;;;;5025903;28;20049;-83
2021/12/08 04:00:29;;;;;;;16.52;10.38;;;;;;;;;;5021080;28;20116;-82
2021/12/08 04:02:56;;;;;;;15.85;11.13;;;;;;;;;;5022259;28;20605;-83
2021/12/08 04:05:31;;;;;;;18.88;11.27;;;;;;;;;;5025555;28;20056;-83
2021/12/08 04:08:03;;;;;;;21.98;12.10;;;;;;;;;;5024177;28;20547;-83
2021/12/08 04:10:30;;;;;;;19.30;11.75;;;;;;;;;;5026037;28;20521;-83
2021/12/08 04:12:57;;;;;;;17.15;11.30;;;;;;;;;;5027932;28;20045;-84
2021/12/08 04:15:24;;;;;;;12.45;9.40;;;;;;;;;;5008723;28;20073;-83
2021/12/08 04:17:52;;;;;;;14.77;8.00;;;;;;;;;;5023917;28;20101;-84
2021/12/08 04:20:20;;;;;;;17.20;10.02;;;;;;;;;;5025741;28;20033;-83
2021/12/08 04:22:48;;;;;;;13.68;10.00;;;;;;;;;;5023638;28;20401;-83
2021/12/08 04:25:17;;;;;;;16.13;9.85;;;;;;;;;;5041764;28;20048;-83
2021/12/08 04:27:44;;;;;;;14.85;10.00;;;;;;;;;;5024788;28;20096;-83
2021/12/08 04:30:14;;;;;;;15.35;11.13;;;;;;;;;;5025215;28;20034;-83
2021/12/08 04:32:40;;;;;;;18.65;11.20;;;;;;;;;;5025516;28;20049;-83
2021/12/08 04:35:09;;;;;;;14.80;12.20;;;;;;;;;;5041947;28;20049;-83
2021/12/08 04:37:37;;;;;;;15.10;11.05;;;;;;;;;;5025209;28;20082;-83
2021/12/08 04:40:21;;;;;;;22.23;12.10;;;;;;;;;;5041873;28;20038;-83
2021/12/08 04:43:12;;;;;;;15.80;12.00;;;;;;;;;;5025239;28;20069;-83
2021/12/08 04:45:54;;;;;;;20.90;12.63;;;;;;;;;;5023866;28;20464;-84
2021/12/08 04:51:13;;;;;;;17.30;12.73;;;;;;;;;;5024370;28;20622;-85
2021/12/08 05:00:11;;;;;;;19.90;14.38;;;;;;;;;;5021940;28;20401;-88
2021/12/08 05:04:50;;;;;;;18.85;14.80;;;;;;;;;;5018331;28;20127;-83
2021/12/08 05:10:14;;;;;;;24.67;16.67;;;;;;;;;;5006459;28;20153;-84
2021/12/08 05:12:40;;;;;;;19.05;15.75;;;;;;;;;;5032783;28;20055;-84
2021/12/08 05:15:12;;;;;;;21.05;15.10;;;;;;;;;;5023351;28;20398;-84
2021/12/08 05:17:38;;;;;;;22.83;17.05;;;;;;;;;;5005232;28;20048;-83
2021/12/08 05:20:20;;;;;;;20.83;16.10;;;;;;;;;;5006146;28;20445;-83
2021/12/08 05:22:50;;;;;;;21.35;15.77;;;;;;;;;;5024453;28;20049;-84
2021/12/08 05:25:18;;;;;;;22.90;16.13;;;;;;;;;;5032486;28;20499;-83
2021/12/08 05:27:48;;;;;;;17.98;14.50;;;;;;;;;;5029240;28;20099;-84
2021/12/08 05:30:17;;;;;;;21.52;16.83;;;;;;;;;;5025331;28;20033;-83
2021/12/08 05:32:45;;;;;;;20.50;14.45;;;;;;;;;;5011509;28;20114;-84
2021/12/08 05:35:12;;;;;;;17.92;15.35;;;;;;;;;;5035493;28;20033;-83
2021/12/08 05:37:38;;;;;;;20.52;15.70;;;;;;;;;;5038426;28;20084;-84
2021/12/08 05:40:06;;;;;;;21.13;16.77;;;;;;;;;;5037594;28;20049;-84
2021/12/08 05:42:35;;;;;;;17.40;15.45;;;;;;;;;;5029179;28;20504;-84
2021/12/08 05:45:07;;;;;;;21.20;15.93;;;;;;;;;;5023705;28;20102;-83
2021/12/08 05:47:33;;;;;;;18.52;16.13;;;;;;;;;;5025136;28;20069;-84
2021/12/08 05:50:00;;;;;;;21.40;16.52;;;;;;;;;;5024754;28;20053;-85
2021/12/08 05:52:27;;;;;;;17.77;15.88;;;;;;;;;;5025099;28;20044;-84
2021/12/08 05:54:53;;;;;;;22.33;17.73;;;;;;;;;;5023610;28;20091;-84
2021/12/08 05:57:21;;;;;;;21.38;16.90;;;;;;;;;;5021447;28;20738;-83
2021/12/08 05:59:49;;;;;;;21.63;18.60;;;;;;;;;;5016655;28;20068;-84
2021/12/08 06:02:24;;;;;;;25.40;18.80;;;;;;;;;;5018153;28;20110;-83
2021/12/08 06:04:50;;;;;;;20.52;17.40;;;;;;;;;;5021181;28;20037;-85
2021/12/08 06:07:21;;;;;;;20.42;17.58;;;;;;;;;;5025262;28;20075;-83
2021/12/08 06:09:47;;;;;;;21.40;18.23;;;;;;;;;;5028441;28;20037;-81
2021/12/08 06:12:13;;;;;;;26.17;17.55;;;;;;;;;;5028076;28;20072;-81
2021/12/08 06:14:39;;;;;;;23.08;18.52;;;;;;;;;;5027424;28;20073;-80
2021/12/08 06:17:11;;;;;;;20.17;17.05;;;;;;;;;;5027085;28;20048;-81
2021/12/08 06:19:40;;;;;;;21.52;16.40;;;;;;;;;;5027121;28;20132;-81
2021/12/08 06:22:06;;;;;;;21.90;17.30;;;;;;;;;;5028445;28;20042;-81
2021/12/08 06:24:32;;;;;;;19.70;16.38;;;;;;;;;;5025700;28;20042;-81
2021/12/08 06:26:58;;;;;;;20.88;15.88;;;;;;;;;;5029168;28;20042;-81
2021/12/08 06:29:24;;;;;;;21.23;15.98;;;;;;;;;;5033032;28;20037;-82
2021/12/08 06:31:53;;;;;;;21.23;16.38;;;;;;;;;;5033321;28;20052;-82
2021/12/08 06:34:20;;;;;;;19.55;15.95;;;;;;;;;;5040940;28;20042;-81
2021/12/08 06:36:49;;;;;;;25.02;15.88;;;;;;;;;;5025962;28;20048;-81
2021/12/08 06:39:18;;;;;;;25.98;16.08;;;;;;;;;;5028113;28;20378;-81
2021/12/08 06:41:46;;;;;;;24.45;15.82;;;;;;;;;;5022631;28;20620;-82
2021/12/08 06:44:16;;;;;;;20.92;15.15;;;;;;;;;;5045041;28;20053;-82
2021/12/08 06:46:43;;;;;;;21.63;16.00;;;;;;;;;;5029421;28;20509;-84
2021/12/08 06:49:10;;;;;;;21.13;14.93;;;;;;;;;;5027822;28;20077;-82
2021/12/08 06:51:38;;;;;;;19.00;14.25;;;;;;;;;;5028417;28;20056;-82
2021/12/08 06:54:07;;;;;;;19.30;14.10;;;;;;;;;;5043680;28;20079;-83
2021/12/08 06:56:40;;;;;;;20.80;14.27;;;;;;;;;;5029768;28;20116;-84
2021/12/08 06:59:09;;;;;;;21.02;13.93;;;;;;;;;;5028882;28;20037;-84
2021/12/08 07:01:51;;;;;;;20.00;13.90;;;;;;;;;;5029779;28;20045;-81
2021/12/08 07:04:33;;;;;;;17.17;13.63;;;;;;;;;;5027395;28;20049;-82
2021/12/08 07:07:12;;;;;;;18.13;13.10;;;;;;;;;;5027664;28;20060;-81
2021/12/08 07:09:38;;;;;;;15.77;12.98;;;;;;;;;;5028536;28;20567;-82
2021/12/08 07:12:12;;;;;;;28.15;13.48;;;;;;;;;;5026656;28;20517;-82
2021/12/08 07:14:38;;;;;;;20.27;12.30;;;;;;;;;;5028437;28;20145;-83
2021/12/08 07:17:07;;;;;;;16.65;12.60;;;;;;;;;;5027426;28;20586;-83
2021/12/08 07:19:45;;;;;;;17.67;12.20;;;;;;;;;;5027556;28;20527;-83
2021/12/08 07:22:14;;;;;;;13.77;11.07;;;;;;;;;;5029531;28;20098;-83
2021/12/08 07:24:41;;;;;;;19.63;12.10;;;;;;;;;;5028652;28;20061;-83
2021/12/08 07:27:13;;;;;;;20.08;11.63;;;;;;;;;;5028249;28;20048;-83
2021/12/08 07:29:41;;;;;;;20.48;12.15;;;;;;;;;;5027709;28;20699;-82
2021/12/08 07:32:09;;;;;;;15.35;11.68;;;;;;;;;;5029445;28;20060;-82
2021/12/08 07:34:36;;;;;;;16.73;11.68;;;;;;;;;;5029170;28;20072;-82
2021/12/08 07:37:05;;;;;;;15.70;11.77;;;;;;;;;;5012190;28;20029;-83
2021/12/08 07:39:34;;;;;;;18.98;11.70;;;;;;;;;;5028638;28;20053;-82
2021/12/08 07:42:03;;;;;;;18.80;12.60;;;;;;;;;;5026529;28;20482;-82
2021/12/08 07:44:29;;;;;;;20.45;12.30;;;;;;;;;;5019916;28;20398;-83
2021/12/08 07:47:07;;;;;;;18.63;12.77;;;;;;;;;;5024818;28;20044;-84
2021/12/08 07:49:38;;;;;;;18.63;11.80;;;;;;;;;;5027914;28;20865;-82
2021/12/08 07:52:10;;;;;;;24.73;12.60;;;;;;;;;;5028230;28;20550;-83
2021/12/08 07:54:36;;;;;;;22.60;12.70;;;;;;;;;;5026439;28;20041;-82
2021/12/08 07:57:06;;;;;;;15.38;12.23;;;;;;;;;;5043653;28;20566;-82
2021/12/08 07:59:32;;;;;;;16.80;11.95;;;;;;;;;;5025920;28;20120;-82
2021/12/08 08:02:00;;;;;;;20.05;12.02;;;;;;;;;;5010061;28;20088;-83
2021/12/08 08:04:27;;;;;;;17.85;11.07;;;;;;;;;;5041575;28;20041;-83
2021/12/08 08:06:55;;;;;;;15.80;10.32;;;;;;;;;;5027003;28;20476;-82
2021/12/08 08:09:24;;;;;;;20.55;9.93;;;;;;;;;;5026033;28;20413;-83
2021/12/08 08:11:56;;;;;;;15.23;10.65;;;;;;;;;;5026952;28;20123;-82
2021/12/08 08:14:24;;;;;;;14.20;9.85;;;;;;;;;;5028067;28;20041;-83
2021/12/08 08:16:55;;;;;;;17.67;10.50;;;;;;;;;;5024638;28;20045;-83
2021/12/08 08:19:26;;;;;;;14.27;9.45;;;;;;;;;;5027432;28;20041;-83
2021/12/08 08:21:53;;;;;;;14.98;9.60;;;;;;;;;;5026231;28;20103;-83
2021/12/08 08:24:19;;;;;;;19.25;8.68;;;;;;;;;;5009622;28;20140;-83
2021/12/08 08:26:48;;;;;;;15.00;9.00;;;;;;;;;;5027039;28;20072;-83
2021/12/08 08:29:14;;;;;;;15.40;8.32;;;;;;;;;;5026392;28;20049;-84
2021/12/08 08:31:42;;;;;;;18.55;8.77;;;;;;;;;;5027123;28;20049;-83
2021/12/08 08:34:10;;;;;;;15.52;8.18;;;;;;;;;;5026448;28;20160;-82
2021/12/08 08:36:38;;;;;;;16.83;8.07;;;;;;;;;;5027712;28;20088;-83
2021/12/08 08:39:10;;;;;;;18.13;8.18;;;;;;;;;;5026105;28;20045;-83
2021/12/08 08:41:39;;;;;;;13.90;7.28;;;;;;;;;;5027694;28;20520;-83
2021/12/08 08:44:10;;;;;;;17.80;7.40;;;;;;;;;;5030177;28;20080;-83
2021/12/08 08:46:38;;;;;;;12.55;7.10;;;;;;;;;;5009010;28;20044;-82
2021/12/08 08:49:07;;;;;;;11.07;7.35;;;;;;;;;;5027209;28;20053;-82
2021/12/08 08:51:46;;;;;;;15.02;7.35;;;;;;;;;;5025839;28;20045;-82
2021/12/08 08:54:20;;;;;;;15.85;7.68;;;;;;;;;;5027423;28;20049;-82
2021/12/08 08:56:46;;;;;;;;;;;;;;;;;;5026597;28;20099;-82
2021/12/08 08:59:18;;;;;;;12.02;5.78;;;;;;;;;;5026913;28;19928;-82
2021/12/08 09:01:45;;;;;;;12.27;6.05;;;;;;;;;;5025416;28;20053;-83
2021/12/08 09:04:15;;;;;;;18.40;6.00;;;;;;;;;;5026757;28;20037;-82
2021/12/08 09:06:43;;;;;;;9.32;5.68;;;;;;;;;;5026100;28;20198;-82
2021/12/08 09:09:13;;;;;;;9.63;5.15;;;;;;;;;;5024462;28;20065;-83
2021/12/08 09:11:42;;;;;;;10.90;5.03;;;;;;;;;;5027381;28;20409;-82
2021/12/08 09:14:35;;;;;;;10.88;5.05;;;;;;;;;;5041817;28;20393;-82
2021/12/08 09:17:06;;;;;;;17.08;4.68;;;;;;;;;;5023499;28;20139;-82
2021/12/08 09:19:36;;;;;;;13.50;4.85;;;;;;;;;;5026851;28;20168;-82
2021/12/08 09:22:11;;;;;;;11.38;4.35;;;;;;;;;;5026038;28;20057;-82
2021/12/08 09:24:45;;;;;;;9.55;3.92;;;;;;;;;;5027189;28;20414;-82
2021/12/08 09:27:12;;;;;;;11.73;3.77;;;;;;;;;;5025987;28;20048;-83
2021/12/08 09:29:45;;;;;;;9.93;3.67;;;;;;;;;;5009134;28;20045;-82
2021/12/08 09:32:18;;;;;;;8.38;3.05;;;;;;;;;;5025009;28;20103;-83
2021/12/08 09:34:57;;;;;;;13.43;3.50;;;;;;;;;;5025810;28;20072;-82
2021/12/08 09:37:35;;;;;;;11.13;3.10;;;;;;;;;;5026689;28;20060;-82
2021/12/08 09:40:06;;;;;;;9.65;2.60;;;;;;;;;;5025329;28;20179;-82
2021/12/08 09:42:39;;;;;;;7.50;2.90;;;;;;;;;;5030340;28;20045;-82
2021/12/08 09:45:06;;;;;;;6.60;2.55;;;;;;;;;;5033102;28;20142;-82
2021/12/08 09:47:32;;;;;;;10.90;3.17;;;;;;;;;;5032558;28;20172;-83
2021/12/08 09:50:04;;;;;;;8.23;2.63;;;;;;;;;;5033398;28;20050;-82
2021/12/08 09:52:30;;;;;;;13.55;2.53;;;;;;;;;;5032739;28;20037;-82
2021/12/08 09:54:57;;;;;;;7.32;2.40;;;;;;;;;;5034072;28;20055;-83
2021/12/08 09:57:24;;;;;;;7.38;2.25;;;;;;;;;;5032133;28;20041;-82
2021/12/08 09:59:50;;;;;;;11.77;2.88;;;;;;;;;;5033152;28;20087;-83
2021/12/08 10:02:25;;;;;;;8.98;2.10;;;;;;;;;;5031076;28;20777;-83
2021/12/08 10:04:51;;;;;;;8.80;2.67;;;;;;;;;;5030206;28;20088;-82
2021/12/08 10:07:18;;;;;;;12.30;2.92;;;;;;;;;;5026819;28;20045;-82
2021/12/08 10:09:44;;;;;;;11.43;2.33;;;;;;;;;;5029384;28;20038;-82
2021/12/08 10:12:12;;;;;;;12.75;2.83;;;;;;;;;;5015523;28;20490;-82
2021/12/08 10:14:38;;;;;;;9.10;2.88;;;;;;;;;;5014117;28;20572;-82
2021/12/08 10:17:04;;;;;;;8.07;3.08;;;;;;;;;;5031522;28;20052;-82
2021/12/08 10:19:31;;;;;;;6.65;2.55;;;;;;;;;;5030422;28;20128;-84
2021/12/08 10:21:58;;;;;;;11.85;3.33;;;;;;;;;;5047855;28;20037;-83
2021/12/08 10:24:25;;;;;;;16.73;3.50;;;;;;;;;;5033086;28;20122;-82
2021/12/08 10:27:00;;;;;;;11.60;2.80;;;;;;;;;;5031698;28;20049;-83
2021/12/08 10:29:27;;;;;;;6.57;2.58;;;;;;;;;;5032866;28;20072;-83
2021/12/08 10:31:55;;;;;;;7.82;2.67;;;;;;;;;;5030079;28;20041;-82
2021/12/08 10:34:25;;;;;;;10.93;3.10;;;;;;;;;;5011793;28;20042;-82
2021/12/08 10:36:59;;;;;;;10.32;2.53;;;;;;;;;;4994852;28;20069;-83
2021/12/08 10:39:25;;;;;;;;;;;;;;;;;;5011135;28;20882;-83
2021/12/08 10:41:57;;;;;;;8.85;2.28;;;;;;;;;;5012799;28;19926;-82
2021/12/08 10:44:31;;;;;;;9.68;2.45;;;;;;;;;;5010787;28;20835;-82
2021/12/08 10:46:59;;;;;;;11.27;3.05;;;;;;;;;;5011601;28;20050;-81
2021/12/08 10:54:50;;;;;;;13.05;3.40;;;;;;;;;;5029864;28;20045;-82
2021/12/08 10:57:20;;;;;;;9.20;2.47;;;;;;;;;;5028733;28;20494;-82
2021/12/08 10:59:53;;;;;;;6.00;1.70;;;;;;;;;;5030654;28;20128;-83
2021/12/08 11:02:38;;;;;;;13.68;2.45;;;;;;;;;;5046146;28;20068;-82
2021/12/08 11:05:06;;;;;;;10.55;2.40;;;;;;;;;;5028641;28;20801;-82
2021/12/08 11:07:32;;;;;;;10.63;2.65;;;;;;;;;;5027290;28;20041;-82
2021/12/08 11:09:58;;;;;;;7.35;3.00;;;;;;;;;;5027817;28;20563;-82
2021/12/08 11:12:42;;;;;;;7.20;1.90;;;;;;;;;;5029465;28;20069;-82
2021/12/08 11:15:22;;;;;;;13.02;2.97;;;;;;;;;;5027858;28;20552;-83
2021/12/08 11:17:49;;;;;;;7.63;2.10;;;;;;;;;;5028994;28;20496;-82
2021/12/08 11:20:15;;;;;;;7.65;2.03;;;;;;;;;;5028086;28;20052;-82
2021/12/08 11:22:43;;;;;;;8.77;2.47;;;;;;;;;;5028815;28;20045;-83
2021/12/08 11:25:21;;;;;;;6.68;2.60;;;;;;;;;;5029356;28;20064;-82
2021/12/08 11:27:47;;;;;;;11.32;2.53;;;;;;;;;;5027579;28;20099;-82
2021/12/08 11:30:15;;;;;;;5.93;2.25;;;;;;;;;;5029211;28;20151;-83
2021/12/08 11:32:41;;;;;;;9.25;2.67;;;;;;;;;;5025894;28;20468;-81
2021/12/08 11:35:19;;;;;;;8.68;2.97;;;;;;;;;;5027354;28;20057;-81
2021/12/08 11:37:45;;;;;;;10.18;3.15;;;;;;;;;;5028708;28;20037;-82
2021/12/08 11:40:16;;;;;;;9.05;2.92;;;;;;;;;;5027239;28;20057;-82
2021/12/08 11:42:42;;;;;;;12.00;2.70;;;;;;;;;;5029656;28;20045;-82
2021/12/08 11:45:16;;;;;;;11.50;2.88;;;;;;;;;;5028128;28;20042;-81
2021/12/08 11:47:44;;;;;;;10.70;2.97;;;;;;;;;;5028738;28;20074;-81
2021/12/08 11:50:12;;;;;;;10.73;2.85;;;;;;;;;;5027668;28;20057;-81
2021/12/08 11:52:38;;;;;;;13.88;2.85;;;;;;;;;;5028538;28;20077;-82
2021/12/08 11:55:06;;;;;;;10.82;3.40;;;;;;;;;;5027038;28;20053;-82
2021/12/08 11:57:40;;;;;;;11.45;2.72;;;;;;;;;;5026355;28;20097;-80
2021/12/08 12:00:06;;;;;;;;;;;;;;;;;;5028784;28;20045;-81
2021/12/08 12:03:01;;;;;;;6.53;2.53;;;;;;;;;;5026952;28;20326;-81
2021/12/08 12:05:27;;;;;;;14.82;3.90;;;;;;;;;;5025512;28;20111;-82
2021/12/08 12:07:54;;;;;;;9.45;3.17;;;;;;;;;;5027870;28;20056;-82
2021/12/08 12:10:22;;;;;;;10.38;2.78;;;;;;;;;;5028159;28;20042;-82
2021/12/08 12:12:48;;;;;;;20.08;4.10;;;;;;;;;;5027618;28;20045;-82
2021/12/08 12:15:16;;;;;;;9.23;2.97;;;;;;;;;;5026777;28;20048;-82
2021/12/08 12:17:42;;;;;;;11.02;2.75;;;;;;;;;;5028259;28;20468;-82
2021/12/08 12:20:15;;;;;;;7.20;2.80;;;;;;;;;;5025962;28;20128;-81
2021/12/08 12:22:44;;;;;;;7.78;2.72;;;;;;;;;;5028205;28;20104;-82
2021/12/08 12:25:13;;;;;;;9.23;3.00;;;;;;;;;;5027866;28;20501;-81
2021/12/08 12:27:40;;;;;;;12.32;3.35;;;;;;;;;;5026321;28;20494;-81
2021/12/08 12:30:13;;;;;;;12.05;3.35;;;;;;;;;;5010360;28;20046;-82
2021/12/08 12:32:44;;;;;;;11.20;2.88;;;;;;;;;;5025452;28;20049;-82
2021/12/08 12:35:12;;;;;;;9.60;2.90;;;;;;;;;;5009493;28;20058;-82
2021/12/08 12:37:39;;;;;;;16.92;2.92;;;;;;;;;;5026451;28;20119;-81
2021/12/08 12:40:07;;;;;;;11.88;3.00;;;;;;;;;;5027611;28;20057;-81
2021/12/08 12:42:54;;;;;;;10.20;2.53;;;;;;;;;;5027081;28;20128;-81
2021/12/08 12:45:20;;;;;;;10.25;2.75;;;;;;;;;;5026825;28;20037;-82
2021/12/08 12:48:05;;;;;;;12.27;2.60;;;;;;;;;;5025849;28;20100;-81
2021/12/08 12:50:31;;;;;;;9.00;2.60;;;;;;;;;;5026135;28;20049;-81
2021/12/08 12:52:59;;;;;;;10.55;2.95;;;;;;;;;;5027666;28;20084;-81
2021/12/08 12:55:28;;;;;;;9.90;2.38;;;;;;;;;;5027156;28;20038;-81
2021/12/08 12:58:06;;;;;;;9.65;2.45;;;;;;;;;;5026002;28;20038;-81
2021/12/08 13:00:32;;;;;;;10.68;2.63;;;;;;;;;;5026977;28;20584;-81
2021/12/08 13:02:58;;;;;;;10.60;2.30;;;;;;;;;;5025240;28;20053;-81
2021/12/08 13:05:44;;;;;;;14.77;2.58;;;;;;;;;;5027659;28;20052;-82
2021/12/08 13:08:11;;;;;;;10.25;2.30;;;;;;;;;;5026081;28;20068;-81
2021/12/08 13:10:39;;;;;;;9.80;2.78;;;;;;;;;;5025730;28;20045;-81
2021/12/08 13:13:10;;;;;;;10.13;2.88;;;;;;;;;;5025116;28;20060;-80
2021/12/08 13:15:37;;;;;;;9.90;3.80;;;;;;;;;;5024799;28;20476;-81
2021/12/08 13:18:08;;;;;;;7.60;2.40;;;;;;;;;;5025987;28;20056;-80
2021/12/08 13:20:36;;;;;;;6.20;2.53;;;;;;;;;;5025811;28;20045;-82
2021/12/08 13:23:03;;;;;;;9.13;2.78;;;;;;;;;;5027376;28;20061;-82
2021/12/08 13:28:34;;;;;;;7.38;2.92;;;;;;;;;;5025638;28;20046;-82
2021/12/08 13:31:48;;;;;;;8.13;2.08;;;;;;;;;;5027147;28;20132;-81
2021/12/08 13:34:14;;;;;;;10.73;2.88;;;;;;;;;;5003597;28;20042;-82
2021/12/08 13:36:43;;;;;;;6.78;2.38;;;;;;;;;;4988090;28;20609;-81
2021/12/08 13:39:14;;;;;;;9.95;2.83;;;;;;;;;;5016552;28;20509;-81
2021/12/08 13:41:41;;;;;;;10.82;2.58;;;;;;;;;;5025929;28;20045;-81
2021/12/08 13:44:32;;;;;;;6.88;2.55;;;;;;;;;;5026844;28;20045;-81
2021/12/08 13:46:59;;;;;;;10.32;2.85;;;;;;;;;;5024267;28;20049;-81
2021/12/08 13:49:31;;;;;;;7.07;3.00;;;;;;;;;;5026546;28;20051;-81
2021/12/08 13:52:09;;;;;;;7.07;2.00;;;;;;;;;;5026622;28;20135;-81
2021/12/08 13:54:36;;;;;;;9.45;2.83;;;;;;;;;;5025367;28;20057;-80
2021/12/08 13:57:05;;;;;;;11.55;2.70;;;;;;;;;;5026486;28;20132;-82
2021/12/08 13:59:50;;;;;;;8.75;2.65;;;;;;;;;;5025561;28;20041;-81
2021/12/08 14:02:28;;;;;;;6.68;2.15;;;;;;;;;;5025568;28;20057;-81
2021/12/08 14:04:58;;;;;;;7.13;2.42;;;;;;;;;;5023954;28;20056;-81
2021/12/08 14:07:25;;;;;;;7.10;2.65;;;;;;;;;;5024287;28;20097;-81
2021/12/08 14:09:55;;;;;;;10.15;2.20;;;;;;;;;;5026384;28;20046;-80
2021/12/08 14:12:22;;;;;;;7.47;2.45;;;;;;;;;;5025476;28;20098;-81
2021/12/08 14:14:58;;;;;;;10.65;2.33;;;;;;;;;;5025778;28;20110;-81
2021/12/08 14:17:29;;;;;;;6.53;2.20;;;;;;;;;;5025483;28;20128;-81
2021/12/08 14:19:55;;;;;;;8.35;2.63;;;;;;;;;;5026227;28;20049;-81
2021/12/08 14:22:21;;;;;;;13.50;2.90;;;;;;;;;;5026030;28;20038;-81
2021/12/08 14:24:56;;;;;;;10.57;2.30;;;;;;;;;;5024869;28;20056;-80
2021/12/08 14:27:29;;;;;;;8.77;2.20;;;;;;;;;;5026615;28;20148;-79
2021/12/08 14:29:57;;;;;;;8.32;2.30;;;;;;;;;;5027915;28;20092;-81
2021/12/08 14:32:23;;;;;;;7.47;2.45;;;;;;;;;;5030643;28;20048;-81
2021/12/08 14:34:49;;;;;;;8.52;2.20;;;;;;;;;;5027994;28;20092;-81
2021/12/08 14:37:15;;;;;;;12.45;2.58;;;;;;;;;;5029028;28;20499;-80
2021/12/08 14:39:50;;;;;;;6.03;2.33;;;;;;;;;;5029419;28;20602;-80
2021/12/08 14:42:29;;;;;;;10.82;2.38;;;;;;;;;;5029181;28;20057;-80
2021/12/08 14:45:03;;;;;;;9.00;2.10;;;;;;;;;;5014087;28;20197;-81
2021/12/08 14:47:32;;;;;;;12.98;2.33;;;;;;;;;;4991783;28;20445;-80
2021/12/08 14:50:01;;;;;;;13.45;2.75;;;;;;;;;;5010114;28;20057;-80
2021/12/08 14:52:32;;;;;;;6.25;2.40;;;;;;;;;;5009656;28;20046;-81
2021/12/08 14:54:59;;;;;;;9.73;2.45;;;;;;;;;;5009923;28;20080;-81
2021/12/08 14:57:30;;;;;;;8.10;2.70;;;;;;;;;;5009933;28;20048;-81
2021/12/08 14:59:57;;;;;;;12.15;3.17;;;;;;;;;;5008968;28;20046;-80
2021/12/08 15:02:29;;;;;;;14.10;2.80;;;;;;;;;;5009875;28;20422;-81
2021/12/08 15:04:56;;;;;;;9.18;2.83;;;;;;;;;;4991051;28;20069;-81
2021/12/08 15:07:32;;;;;;;11.40;2.58;;;;;;;;;;5008448;28;20623;-82
2021/12/08 15:10:00;;;;;;;8.32;2.80;;;;;;;;;;4991718;28;20529;-81
2021/12/08 15:12:26;;;;;;;14.60;3.67;;;;;;;;;;5009069;28;20045;-81
2021/12/08 15:14:52;;;;;;;7.55;2.55;;;;;;;;;;5007659;28;20539;-81
2021/12/08 15:17:29;;;;;;;7.43;2.33;;;;;;;;;;5024783;28;20045;-81
2021/12/08 15:19:55;;;;;;;6.78;2.30;;;;;;;;;;5027022;28;20136;-81
2021/12/08 15:22:25;;;;;;;12.85;2.67;;;;;;;;;;5021484;28;20041;-81
2021/12/08 15:25:06;;;;;;;9.70;2.83;;;;;;;;;;5007688;28;20238;-81
2021/12/08 15:27:35;;;;;;;6.15;2.15;;;;;;;;;;5042288;28;20033;-81
2021/12/08 15:30:01;;;;;;;12.45;3.85;;;;;;;;;;5026936;28;20564;-80
2021/12/08 15:32:27;;;;;;;10.75;2.72;;;;;;;;;;5024812;28;20177;-81